WDG11 EGPN-EGPB
Flight info
| Callsign | WDG11 |
|---|---|
| Flight time | 1h 9m |
| Altitude | 19000 |
| Route | ASNUD P600 ADN Y905 MOCHA DCT SUM |
| Aircraft | F406/L-SDFR/C |
Departure
| Time | 2026-05-03 21:07 |
|---|---|
| Airport | Dundee Airport (EGPN) |
Arrival
| Time | 2026-05-03 22:17 |
|---|---|
| Airport | Sumburgh Airport (EGPB) |
| Time | Latitude | Longitude | Altitude | Speed | Heading |
|---|---|---|---|---|---|
| 2026-05-03 20:54 | 56.45370 | -3.01574 | 13 ft | 0 kts | 0° |
| 2026-05-03 21:03 | 56.45374 | -3.01576 | 13 ft | 0 kts | 329° |
| 2026-05-03 21:03 | 56.45375 | -3.01583 | 13 ft | 1 kts | 275° |
| 2026-05-03 21:04 | 56.45367 | -3.01594 | 13 ft | 5 kts | 194° |
| 2026-05-03 21:04 | 56.45326 | -3.01681 | 13 ft | 13 kts | 256° |
| 2026-05-03 21:04 | 56.45304 | -3.01833 | 13 ft | 12 kts | 219° |
| 2026-05-03 21:04 | 56.45244 | -3.01950 | 15 ft | 13 kts | 253° |
| 2026-05-03 21:05 | 56.45238 | -3.02138 | 14 ft | 17 kts | 269° |
| 2026-05-03 21:05 | 56.45239 | -3.02367 | 12 ft | 20 kts | 271° |
| 2026-05-03 21:05 | 56.45241 | -3.02632 | 11 ft | 22 kts | 270° |
| 2026-05-03 21:05 | 56.45239 | -3.02908 | 12 ft | 22 kts | 272° |
| 2026-05-03 21:06 | 56.45251 | -3.03155 | 14 ft | 13 kts | 284° |
| 2026-05-03 21:06 | 56.45254 | -3.03223 | 15 ft | 1 kts | 204° |
| 2026-05-03 21:06 | 56.45244 | -3.03216 | 15 ft | 3 kts | 121° |
| 2026-05-03 21:06 | 56.45240 | -3.02943 | 12 ft | 72 kts | 90° |
| 2026-05-03 21:07 | 56.45232 | -3.01529 | 108 ft | 135 kts | 91° |
| 2026-05-03 21:07 | 56.45193 | -2.99754 | 589 ft | 145 kts | 93° |
| 2026-05-03 21:07 | 56.45146 | -2.97912 | 1195 ft | 146 kts | 94° |
| 2026-05-03 21:07 | 56.45406 | -2.96165 | 1821 ft | 153 kts | 50° |
| 2026-05-03 21:08 | 56.46354 | -2.95320 | 2461 ft | 160 kts | 3° |
| 2026-05-03 21:08 | 56.47464 | -2.95701 | 3095 ft | 164 kts | 345° |
| 2026-05-03 21:08 | 56.48560 | -2.96336 | 3716 ft | 166 kts | 342° |
| 2026-05-03 21:08 | 56.49648 | -2.97048 | 4336 ft | 167 kts | 341° |
| 2026-05-03 21:09 | 56.50746 | -2.97703 | 4955 ft | 166 kts | 348° |
| 2026-05-03 21:09 | 56.51886 | -2.98099 | 5585 ft | 169 kts | 350° |
| 2026-05-03 21:09 | 56.53050 | -2.98510 | 6212 ft | 172 kts | 345° |
| 2026-05-03 21:09 | 56.54162 | -2.99006 | 6807 ft | 174 kts | 345° |
| 2026-05-03 21:10 | 56.55347 | -2.99522 | 7433 ft | 176 kts | 346° |
| 2026-05-03 21:10 | 56.56554 | -3.00032 | 8065 ft | 179 kts | 345° |
| 2026-05-03 21:10 | 56.57772 | -3.00553 | 8688 ft | 182 kts | 345° |
| 2026-05-03 21:10 | 56.59011 | -3.01087 | 9315 ft | 184 kts | 345° |
| 2026-05-03 21:11 | 56.60263 | -3.01629 | 9938 ft | 186 kts | 345° |
| 2026-05-03 21:11 | 56.61527 | -3.02164 | 10564 ft | 189 kts | 345° |
| 2026-05-03 21:11 | 56.62816 | -3.02719 | 11191 ft | 191 kts | 345° |
| 2026-05-03 21:11 | 56.64121 | -3.03282 | 11818 ft | 194 kts | 344° |
| 2026-05-03 21:12 | 56.65451 | -3.03854 | 12445 ft | 197 kts | 344° |
| 2026-05-03 21:12 | 56.66798 | -3.04424 | 13070 ft | 200 kts | 346° |
| 2026-05-03 21:12 | 56.68187 | -3.04786 | 13695 ft | 204 kts | 357° |
| 2026-05-03 21:12 | 56.69602 | -3.04324 | 14325 ft | 209 kts | 14° |
| 2026-05-03 21:13 | 56.70944 | -3.03365 | 14944 ft | 209 kts | 21° |
| 2026-05-03 21:13 | 56.72212 | -3.02105 | 15570 ft | 207 kts | 32° |
| 2026-05-03 21:13 | 56.73381 | -3.00584 | 16196 ft | 206 kts | 32° |
| 2026-05-03 21:13 | 56.74554 | -2.99113 | 16823 ft | 204 kts | 31° |
| 2026-05-03 21:14 | 56.75753 | -2.97626 | 17161 ft | 220 kts | 32° |
| 2026-05-03 21:14 | 56.77073 | -2.95955 | 17098 ft | 239 kts | 32° |
| 2026-05-03 21:14 | 56.78470 | -2.94190 | 17069 ft | 247 kts | 32° |
| 2026-05-03 21:14 | 56.79894 | -2.92396 | 17054 ft | 250 kts | 32° |
| 2026-05-03 21:15 | 56.81328 | -2.90583 | 17047 ft | 251 kts | 32° |
| 2026-05-03 21:15 | 56.82766 | -2.88767 | 17046 ft | 252 kts | 32° |
| 2026-05-03 21:15 | 56.84206 | -2.86945 | 17043 ft | 252 kts | 32° |
| 2026-05-03 21:15 | 56.85642 | -2.85124 | 17037 ft | 252 kts | 32° |
| 2026-05-03 21:16 | 56.87086 | -2.83293 | 17034 ft | 252 kts | 32° |
| 2026-05-03 21:16 | 56.88524 | -2.81460 | 17033 ft | 252 kts | 32° |
| 2026-05-03 21:16 | 56.89946 | -2.79662 | 17035 ft | 252 kts | 32° |
| 2026-05-03 21:16 | 56.91390 | -2.77830 | 17036 ft | 252 kts | 32° |
| 2026-05-03 21:17 | 56.92830 | -2.75999 | 17030 ft | 252 kts | 32° |
| 2026-05-03 21:17 | 56.93803 | -2.74765 | 17029 ft | 252 kts | 32° |
| 2026-05-03 21:17 | 56.95710 | -2.72335 | 17024 ft | 252 kts | 32° |
| 2026-05-03 21:17 | 56.97151 | -2.70495 | 17026 ft | 252 kts | 32° |
| 2026-05-03 21:18 | 56.98592 | -2.68655 | 17024 ft | 252 kts | 32° |
| 2026-05-03 21:18 | 57.00033 | -2.66813 | 17022 ft | 252 kts | 32° |
| 2026-05-03 21:18 | 57.01476 | -2.64964 | 17024 ft | 252 kts | 32° |
| 2026-05-03 21:18 | 57.02861 | -2.63191 | 17025 ft | 252 kts | 32° |
| 2026-05-03 21:19 | 57.04302 | -2.61342 | 17024 ft | 253 kts | 32° |
| 2026-05-03 21:19 | 57.05741 | -2.59496 | 17024 ft | 252 kts | 32° |
| 2026-05-03 21:19 | 57.07180 | -2.57647 | 17025 ft | 252 kts | 32° |
| 2026-05-03 21:19 | 57.08623 | -2.55793 | 17025 ft | 253 kts | 32° |
| 2026-05-03 21:20 | 57.10043 | -2.53965 | 17026 ft | 253 kts | 32° |
| 2026-05-03 21:20 | 57.11483 | -2.52106 | 17024 ft | 253 kts | 32° |
| 2026-05-03 21:20 | 57.12924 | -2.50251 | 17024 ft | 253 kts | 32° |
| 2026-05-03 21:20 | 57.14364 | -2.48391 | 17024 ft | 253 kts | 32° |
| 2026-05-03 21:21 | 57.15806 | -2.46528 | 17022 ft | 253 kts | 32° |
| 2026-05-03 21:21 | 57.17248 | -2.44662 | 17021 ft | 253 kts | 32° |
| 2026-05-03 21:21 | 57.18690 | -2.42796 | 17017 ft | 253 kts | 32° |
| 2026-05-03 21:21 | 57.20131 | -2.40928 | 17015 ft | 253 kts | 32° |
| 2026-05-03 21:22 | 57.21571 | -2.39061 | 17015 ft | 253 kts | 32° |
| 2026-05-03 21:22 | 57.23013 | -2.37189 | 17015 ft | 253 kts | 32° |
| 2026-05-03 21:22 | 57.24454 | -2.35315 | 17015 ft | 254 kts | 32° |
| 2026-05-03 21:22 | 57.25896 | -2.33441 | 17016 ft | 254 kts | 32° |
| 2026-05-03 21:23 | 57.27342 | -2.31557 | 17015 ft | 254 kts | 32° |
| 2026-05-03 21:23 | 57.28782 | -2.29677 | 17015 ft | 254 kts | 32° |
| 2026-05-03 21:23 | 57.30194 | -2.27727 | 17015 ft | 254 kts | 34° |
| 2026-05-03 21:23 | 57.31590 | -2.25710 | 17015 ft | 255 kts | 36° |
| 2026-05-03 21:24 | 57.32887 | -2.23433 | 17016 ft | 256 kts | 42° |
| 2026-05-03 21:24 | 57.34138 | -2.21168 | 17015 ft | 256 kts | 41° |
| 2026-05-03 21:24 | 57.34989 | -2.19649 | 17015 ft | 256 kts | 41° |
| 2026-05-03 21:24 | 57.36269 | -2.17347 | 17016 ft | 257 kts | 41° |
| 2026-05-03 21:25 | 57.37548 | -2.15044 | 17015 ft | 256 kts | 41° |
| 2026-05-03 21:25 | 57.38828 | -2.12739 | 17015 ft | 257 kts | 41° |
| 2026-05-03 21:25 | 57.40106 | -2.10435 | 17017 ft | 257 kts | 41° |
| 2026-05-03 21:25 | 57.41387 | -2.08121 | 17017 ft | 257 kts | 41° |
| 2026-05-03 21:26 | 57.42669 | -2.05805 | 17017 ft | 257 kts | 40° |
| 2026-05-03 21:26 | 57.43954 | -2.03471 | 17030 ft | 259 kts | 39° |
| 2026-05-03 21:26 | 57.45249 | -2.01137 | 17035 ft | 260 kts | 40° |
| 2026-05-03 21:26 | 57.46545 | -1.98786 | 17041 ft | 261 kts | 40° |
| 2026-05-03 21:27 | 57.47842 | -1.96429 | 17042 ft | 262 kts | 40° |
| 2026-05-03 21:27 | 57.49148 | -1.94062 | 17042 ft | 262 kts | 40° |
| 2026-05-03 21:27 | 57.50455 | -1.91682 | 17043 ft | 262 kts | 40° |
| 2026-05-03 21:27 | 57.51759 | -1.89308 | 17043 ft | 262 kts | 40° |
| 2026-05-03 21:28 | 57.53045 | -1.86964 | 17044 ft | 262 kts | 40° |
| 2026-05-03 21:28 | 57.54330 | -1.84557 | 17042 ft | 262 kts | 40° |
| 2026-05-03 21:28 | 57.55800 | -1.82647 | 17043 ft | 255 kts | 21° |
| 2026-05-03 21:28 | 57.57428 | -1.81448 | 17042 ft | 250 kts | 10° |
| 2026-05-03 21:29 | 57.59123 | -1.80966 | 17043 ft | 245 kts | 358° |
| 2026-05-03 21:29 | 57.60819 | -1.80703 | 17042 ft | 246 kts | 0° |
| 2026-05-03 21:29 | 57.62525 | -1.80315 | 17042 ft | 246 kts | 0° |
| 2026-05-03 21:29 | 57.64227 | -1.79949 | 17038 ft | 247 kts | 0° |
| 2026-05-03 21:30 | 57.65935 | -1.79582 | 17035 ft | 246 kts | 0° |
| 2026-05-03 21:30 | 57.67638 | -1.79212 | 17034 ft | 246 kts | 0° |
| 2026-05-03 21:30 | 57.69335 | -1.78846 | 17034 ft | 246 kts | 0° |
| 2026-05-03 21:30 | 57.71036 | -1.78477 | 17033 ft | 246 kts | 0° |
| 2026-05-03 21:31 | 57.72738 | -1.78110 | 17036 ft | 246 kts | 0° |
| 2026-05-03 21:31 | 57.74451 | -1.77738 | 17034 ft | 246 kts | 0° |
| 2026-05-03 21:31 | 57.76122 | -1.77377 | 17033 ft | 246 kts | 0° |
| 2026-05-03 21:31 | 57.77822 | -1.77007 | 17036 ft | 247 kts | 0° |
| 2026-05-03 21:32 | 57.79521 | -1.76641 | 17033 ft | 246 kts | 0° |
| 2026-05-03 21:32 | 57.81206 | -1.76272 | 17033 ft | 246 kts | 0° |
| 2026-05-03 21:32 | 57.82912 | -1.75905 | 17034 ft | 246 kts | 0° |
| 2026-05-03 21:32 | 57.84613 | -1.75535 | 17033 ft | 246 kts | 0° |
| 2026-05-03 21:33 | 57.86317 | -1.75161 | 17033 ft | 247 kts | 0° |
| 2026-05-03 21:33 | 57.88024 | -1.74797 | 17032 ft | 248 kts | 360° |
| 2026-05-03 21:33 | 57.89736 | -1.74415 | 17028 ft | 247 kts | 0° |
| 2026-05-03 21:33 | 57.91442 | -1.74046 | 17026 ft | 247 kts | 0° |
| 2026-05-03 21:34 | 57.93147 | -1.73676 | 17025 ft | 246 kts | 0° |
| 2026-05-03 21:34 | 57.94848 | -1.73300 | 17025 ft | 245 kts | 360° |
| 2026-05-03 21:34 | 57.96546 | -1.72931 | 17049 ft | 244 kts | 0° |
| 2026-05-03 21:34 | 57.98158 | -1.72571 | 17622 ft | 225 kts | 359° |
| 2026-05-03 21:35 | 57.99684 | -1.72240 | 18197 ft | 216 kts | 358° |
| 2026-05-03 21:35 | 58.01140 | -1.71925 | 18769 ft | 212 kts | 359° |
| 2026-05-03 21:35 | 58.02591 | -1.71605 | 19346 ft | 208 kts | 359° |
| 2026-05-03 21:35 | 58.04021 | -1.71293 | 19921 ft | 207 kts | 359° |
| 2026-05-03 21:36 | 58.05448 | -1.70977 | 20499 ft | 204 kts | 359° |
| 2026-05-03 21:36 | 58.06861 | -1.70672 | 21072 ft | 204 kts | 358° |
| 2026-05-03 21:36 | 58.08356 | -1.70355 | 21088 ft | 228 kts | 359° |
| 2026-05-03 21:36 | 58.09975 | -1.69983 | 21054 ft | 240 kts | 360° |
| 2026-05-03 21:37 | 58.11660 | -1.69608 | 21022 ft | 246 kts | 360° |
| 2026-05-03 21:37 | 58.13363 | -1.69233 | 21020 ft | 248 kts | 0° |
| 2026-05-03 21:37 | 58.15082 | -1.68851 | 21017 ft | 248 kts | 360° |
| 2026-05-03 21:37 | 58.16803 | -1.68471 | 21016 ft | 249 kts | 360° |
| 2026-05-03 21:38 | 58.18503 | -1.68095 | 21016 ft | 249 kts | 360° |
| 2026-05-03 21:38 | 58.20180 | -1.67722 | 21015 ft | 249 kts | 360° |
| 2026-05-03 21:38 | 58.21901 | -1.67341 | 21015 ft | 249 kts | 360° |
| 2026-05-03 21:38 | 58.23620 | -1.66960 | 21013 ft | 249 kts | 360° |
| 2026-05-03 21:39 | 58.25344 | -1.66577 | 21009 ft | 249 kts | 360° |
| 2026-05-03 21:39 | 58.27064 | -1.66194 | 21007 ft | 249 kts | 360° |
| 2026-05-03 21:39 | 58.28787 | -1.65811 | 21006 ft | 249 kts | 360° |
| 2026-05-03 21:39 | 58.30508 | -1.65426 | 21001 ft | 249 kts | 360° |
| 2026-05-03 21:40 | 58.32231 | -1.65041 | 20999 ft | 249 kts | 360° |
| 2026-05-03 21:40 | 58.33955 | -1.64657 | 20998 ft | 249 kts | 360° |
| 2026-05-03 21:40 | 58.35680 | -1.64271 | 20997 ft | 249 kts | 360° |
| 2026-05-03 21:40 | 58.37401 | -1.63887 | 20997 ft | 250 kts | 360° |
| 2026-05-03 21:41 | 58.39133 | -1.63498 | 20997 ft | 249 kts | 360° |
| 2026-05-03 21:41 | 58.40856 | -1.63111 | 20997 ft | 249 kts | 360° |
| 2026-05-03 21:41 | 58.42580 | -1.62724 | 20997 ft | 249 kts | 360° |
| 2026-05-03 21:41 | 58.44307 | -1.62336 | 20997 ft | 250 kts | 360° |
| 2026-05-03 21:42 | 58.46003 | -1.61955 | 20997 ft | 250 kts | 360° |
| 2026-05-03 21:42 | 58.47728 | -1.61566 | 20997 ft | 250 kts | 359° |
| 2026-05-03 21:42 | 58.49453 | -1.61178 | 20997 ft | 250 kts | 359° |
| 2026-05-03 21:42 | 58.51178 | -1.60788 | 20993 ft | 250 kts | 359° |
| 2026-05-03 21:43 | 58.52902 | -1.60399 | 20990 ft | 250 kts | 360° |
| 2026-05-03 21:43 | 58.54631 | -1.60007 | 20992 ft | 250 kts | 360° |
| 2026-05-03 21:43 | 58.56360 | -1.59617 | 20994 ft | 250 kts | 359° |
| 2026-05-03 21:43 | 58.58083 | -1.59224 | 20996 ft | 250 kts | 359° |
| 2026-05-03 21:44 | 58.59810 | -1.58834 | 20996 ft | 250 kts | 359° |
| 2026-05-03 21:44 | 58.61536 | -1.58443 | 20996 ft | 250 kts | 359° |
| 2026-05-03 21:44 | 58.63259 | -1.58051 | 20997 ft | 250 kts | 359° |
| 2026-05-03 21:44 | 58.64985 | -1.57657 | 20997 ft | 250 kts | 359° |
| 2026-05-03 21:45 | 58.66710 | -1.57265 | 20997 ft | 250 kts | 359° |
| 2026-05-03 21:45 | 58.68436 | -1.56874 | 20997 ft | 250 kts | 359° |
| 2026-05-03 21:45 | 58.70163 | -1.56479 | 20992 ft | 250 kts | 359° |
| 2026-05-03 21:45 | 58.71873 | -1.56088 | 20990 ft | 250 kts | 359° |
| 2026-05-03 21:46 | 58.73608 | -1.55690 | 20988 ft | 250 kts | 359° |
| 2026-05-03 21:46 | 58.75335 | -1.55297 | 20988 ft | 250 kts | 359° |
| 2026-05-03 21:46 | 58.77057 | -1.54902 | 20987 ft | 250 kts | 359° |
| 2026-05-03 21:46 | 58.78789 | -1.54506 | 20987 ft | 250 kts | 359° |
| 2026-05-03 21:47 | 58.80468 | -1.54119 | 20987 ft | 250 kts | 359° |
| 2026-05-03 21:47 | 58.82200 | -1.53721 | 20988 ft | 250 kts | 359° |
| 2026-05-03 21:47 | 58.83928 | -1.53323 | 20987 ft | 250 kts | 359° |
| 2026-05-03 21:47 | 58.85653 | -1.52927 | 20987 ft | 250 kts | 359° |
| 2026-05-03 21:48 | 58.87384 | -1.52528 | 20987 ft | 250 kts | 359° |
| 2026-05-03 21:48 | 58.89113 | -1.52129 | 20988 ft | 250 kts | 359° |
| 2026-05-03 21:48 | 58.90843 | -1.51730 | 20988 ft | 250 kts | 358° |
| 2026-05-03 21:48 | 58.92574 | -1.51331 | 20988 ft | 250 kts | 358° |
| 2026-05-03 21:49 | 58.94304 | -1.50928 | 20988 ft | 251 kts | 358° |
| 2026-05-03 21:49 | 58.96039 | -1.50528 | 20988 ft | 250 kts | 358° |
| 2026-05-03 21:49 | 58.97768 | -1.50128 | 20982 ft | 251 kts | 358° |
| 2026-05-03 21:49 | 58.99475 | -1.49731 | 20975 ft | 251 kts | 358° |
| 2026-05-03 21:50 | 59.01208 | -1.49328 | 20972 ft | 251 kts | 358° |
| 2026-05-03 21:50 | 59.02943 | -1.48924 | 20970 ft | 251 kts | 358° |
| 2026-05-03 21:50 | 59.04676 | -1.48521 | 20969 ft | 251 kts | 358° |
| 2026-05-03 21:50 | 59.06413 | -1.48115 | 20969 ft | 251 kts | 358° |
| 2026-05-03 21:51 | 59.08146 | -1.47712 | 20970 ft | 251 kts | 358° |
| 2026-05-03 21:51 | 59.09880 | -1.47306 | 20969 ft | 251 kts | 358° |
| 2026-05-03 21:51 | 59.11611 | -1.46902 | 20969 ft | 251 kts | 358° |
| 2026-05-03 21:51 | 59.13345 | -1.46496 | 20969 ft | 251 kts | 358° |
| 2026-05-03 21:52 | 59.15078 | -1.46091 | 20969 ft | 251 kts | 358° |
| 2026-05-03 21:52 | 59.16810 | -1.45684 | 20968 ft | 251 kts | 358° |
| 2026-05-03 21:52 | 59.18544 | -1.45277 | 20963 ft | 251 kts | 358° |
| 2026-05-03 21:52 | 59.20277 | -1.44870 | 20961 ft | 251 kts | 358° |
| 2026-05-03 21:53 | 59.22012 | -1.44462 | 20960 ft | 251 kts | 358° |
| 2026-05-03 21:53 | 59.23726 | -1.44058 | 20960 ft | 251 kts | 358° |
| 2026-05-03 21:53 | 59.25467 | -1.43646 | 20960 ft | 251 kts | 358° |
| 2026-05-03 21:53 | 59.27203 | -1.43239 | 20960 ft | 251 kts | 357° |
| 2026-05-03 21:54 | 59.28944 | -1.42828 | 20960 ft | 251 kts | 357° |
| 2026-05-03 21:54 | 59.30684 | -1.42416 | 20960 ft | 251 kts | 358° |
| 2026-05-03 21:54 | 59.32418 | -1.42006 | 20959 ft | 251 kts | 357° |
| 2026-05-03 21:54 | 59.34100 | -1.41606 | 20958 ft | 251 kts | 357° |
| 2026-05-03 21:55 | 59.35840 | -1.41193 | 20954 ft | 251 kts | 357° |
| 2026-05-03 21:55 | 59.37553 | -1.40786 | 20952 ft | 251 kts | 357° |
| 2026-05-03 21:55 | 59.39291 | -1.40376 | 20951 ft | 252 kts | 357° |
| 2026-05-03 21:55 | 59.41033 | -1.39960 | 20951 ft | 251 kts | 357° |
| 2026-05-03 21:56 | 59.42770 | -1.39547 | 20951 ft | 251 kts | 357° |
| 2026-05-03 21:56 | 59.44511 | -1.39131 | 20950 ft | 251 kts | 357° |
| 2026-05-03 21:56 | 59.46247 | -1.38717 | 20950 ft | 251 kts | 357° |
| 2026-05-03 21:56 | 59.47984 | -1.38302 | 20950 ft | 251 kts | 357° |
| 2026-05-03 21:57 | 59.49719 | -1.37887 | 20950 ft | 251 kts | 357° |
| 2026-05-03 21:57 | 59.51452 | -1.37472 | 20949 ft | 251 kts | 357° |
| 2026-05-03 21:57 | 59.53164 | -1.37366 | 20944 ft | 237 kts | 339° |
| 2026-05-03 21:57 | 59.54542 | -1.38786 | 20949 ft | 217 kts | 307° |
| 2026-05-03 21:58 | 59.55302 | -1.41266 | 20945 ft | 211 kts | 291° |
| 2026-05-03 21:58 | 59.55875 | -1.43918 | 20942 ft | 210 kts | 288° |
| 2026-05-03 21:58 | 59.56403 | -1.46605 | 20938 ft | 210 kts | 287° |
| 2026-05-03 21:58 | 59.56916 | -1.49308 | 20938 ft | 210 kts | 287° |
| 2026-05-03 21:59 | 59.57422 | -1.52006 | 20945 ft | 209 kts | 287° |
| 2026-05-03 21:59 | 59.57920 | -1.54674 | 20939 ft | 209 kts | 287° |
| 2026-05-03 21:59 | 59.58423 | -1.57373 | 20943 ft | 209 kts | 287° |
| 2026-05-03 21:59 | 59.58926 | -1.60068 | 20941 ft | 209 kts | 287° |
| 2026-05-03 22:00 | 59.59432 | -1.62771 | 20939 ft | 209 kts | 287° |
| 2026-05-03 22:00 | 59.59936 | -1.65462 | 20944 ft | 208 kts | 287° |
| 2026-05-03 22:00 | 59.60438 | -1.68145 | 20939 ft | 208 kts | 287° |
| 2026-05-03 22:00 | 59.60941 | -1.70825 | 20944 ft | 208 kts | 287° |
| 2026-05-03 22:01 | 59.61438 | -1.73476 | 20940 ft | 208 kts | 287° |
| 2026-05-03 22:01 | 59.61933 | -1.76115 | 20943 ft | 208 kts | 287° |
| 2026-05-03 22:01 | 59.62428 | -1.78759 | 20942 ft | 208 kts | 287° |
| 2026-05-03 22:01 | 59.62932 | -1.81450 | 20942 ft | 208 kts | 287° |
| 2026-05-03 22:02 | 59.63577 | -1.84012 | 20938 ft | 215 kts | 305° |
| 2026-05-03 22:02 | 59.64914 | -1.85677 | 20520 ft | 246 kts | 334° |
| 2026-05-03 22:02 | 59.66710 | -1.85772 | 20045 ft | 274 kts | 3° |
| 2026-05-03 22:02 | 59.68486 | -1.84092 | 19566 ft | 295 kts | 31° |
| 2026-05-03 22:03 | 59.69817 | -1.80905 | 19088 ft | 308 kts | 58° |
| 2026-05-03 22:03 | 59.70551 | -1.76888 | 18612 ft | 311 kts | 72° |
| 2026-05-03 22:03 | 59.71083 | -1.72734 | 18133 ft | 310 kts | 75° |
| 2026-05-03 22:03 | 59.71560 | -1.68576 | 17656 ft | 309 kts | 75° |
| 2026-05-03 22:04 | 59.72016 | -1.64428 | 17179 ft | 307 kts | 76° |
| 2026-05-03 22:04 | 59.72428 | -1.60585 | 16697 ft | 262 kts | 76° |
| 2026-05-03 22:04 | 59.72783 | -1.57183 | 16221 ft | 245 kts | 76° |
| 2026-05-03 22:04 | 59.73161 | -1.53991 | 15752 ft | 238 kts | 73° |
| 2026-05-03 22:05 | 59.73567 | -1.50827 | 15277 ft | 236 kts | 72° |
| 2026-05-03 22:05 | 59.73979 | -1.47688 | 14803 ft | 235 kts | 72° |
| 2026-05-03 22:05 | 59.74395 | -1.44538 | 14327 ft | 237 kts | 72° |
| 2026-05-03 22:05 | 59.74818 | -1.41378 | 13850 ft | 237 kts | 72° |
| 2026-05-03 22:06 | 59.75238 | -1.38227 | 13374 ft | 235 kts | 72° |
| 2026-05-03 22:06 | 59.75651 | -1.35100 | 12895 ft | 233 kts | 72° |
| 2026-05-03 22:06 | 59.76060 | -1.32002 | 12385 ft | 231 kts | 72° |
| 2026-05-03 22:06 | 59.76465 | -1.28928 | 11886 ft | 228 kts | 72° |
| 2026-05-03 22:07 | 59.76863 | -1.25896 | 11384 ft | 226 kts | 72° |
| 2026-05-03 22:07 | 59.77248 | -1.22936 | 10890 ft | 223 kts | 72° |
| 2026-05-03 22:07 | 59.77636 | -1.19932 | 10380 ft | 220 kts | 72° |
| 2026-05-03 22:07 | 59.78003 | -1.17054 | 9882 ft | 217 kts | 72° |
| 2026-05-03 22:08 | 59.78365 | -1.14171 | 9386 ft | 214 kts | 72° |
| 2026-05-03 22:08 | 59.78720 | -1.11321 | 8882 ft | 211 kts | 72° |
| 2026-05-03 22:08 | 59.79069 | -1.08508 | 8384 ft | 208 kts | 72° |
| 2026-05-03 22:08 | 59.79409 | -1.05737 | 7882 ft | 205 kts | 72° |
| 2026-05-03 22:09 | 59.79812 | -1.03053 | 7381 ft | 200 kts | 59° |
| 2026-05-03 22:09 | 59.80428 | -1.00595 | 6877 ft | 196 kts | 56° |
| 2026-05-03 22:09 | 59.81078 | -0.98213 | 6372 ft | 195 kts | 53° |
| 2026-05-03 22:10 | 59.82366 | -0.93686 | 5396 ft | 191 kts | 52° |
| 2026-05-03 22:10 | 59.83023 | -0.91405 | 4894 ft | 190 kts | 52° |
| 2026-05-03 22:10 | 59.83891 | -0.89630 | 4402 ft | 173 kts | 15° |
| 2026-05-03 22:10 | 59.85017 | -0.89277 | 3908 ft | 162 kts | 351° |
| 2026-05-03 22:11 | 59.86142 | -0.89238 | 3400 ft | 161 kts | 351° |
| 2026-05-03 22:11 | 59.87264 | -0.89249 | 2897 ft | 161 kts | 350° |
| 2026-05-03 22:11 | 59.88350 | -0.89499 | 2400 ft | 151 kts | 326° |
| 2026-05-03 22:11 | 59.89116 | -0.90773 | 2212 ft | 134 kts | 308° |
| 2026-05-03 22:12 | 59.89504 | -0.92282 | 2311 ft | 122 kts | 274° |
| 2026-05-03 22:12 | 59.89626 | -0.93954 | 2343 ft | 122 kts | 275° |
| 2026-05-03 22:12 | 59.89720 | -0.95643 | 2359 ft | 123 kts | 273° |
| 2026-05-03 22:12 | 59.89779 | -0.97435 | 2371 ft | 138 kts | 271° |
| 2026-05-03 22:13 | 59.89796 | -0.99391 | 2371 ft | 143 kts | 269° |
| 2026-05-03 22:13 | 59.89771 | -1.01380 | 2372 ft | 144 kts | 268° |
| 2026-05-03 22:13 | 59.89727 | -1.03377 | 2373 ft | 144 kts | 268° |
| 2026-05-03 22:13 | 59.89680 | -1.05271 | 2311 ft | 132 kts | 268° |
| 2026-05-03 22:14 | 59.89647 | -1.06487 | 2177 ft | 132 kts | 268° |
| 2026-05-03 22:14 | 59.89596 | -1.08325 | 1992 ft | 133 kts | 269° |
| 2026-05-03 22:14 | 59.89566 | -1.10778 | 1758 ft | 134 kts | 272° |
| 2026-05-03 22:14 | 59.89453 | -1.12652 | 1484 ft | 139 kts | 260° |
| 2026-05-03 22:15 | 59.89270 | -1.13924 | 1270 ft | 145 kts | 255° |
| 2026-05-03 22:15 | 59.88920 | -1.15908 | 933 ft | 153 kts | 255° |
| 2026-05-03 22:15 | 59.88695 | -1.17902 | 718 ft | 146 kts | 264° |
| 2026-05-03 22:15 | 59.88589 | -1.20632 | 490 ft | 145 kts | 270° |
| 2026-05-03 22:16 | 59.88558 | -1.21929 | 314 ft | 137 kts | 266° |
| 2026-05-03 22:16 | 59.88448 | -1.23816 | 179 ft | 141 kts | 266° |
| 2026-05-03 22:16 | 59.88341 | -1.25792 | 219 ft | 145 kts | 264° |
| 2026-05-03 22:16 | 59.88240 | -1.27737 | 119 ft | 139 kts | 265° |
| 2026-05-03 22:17 | 59.88148 | -1.29396 | 41 ft | 78 kts | 264° |
| 2026-05-03 22:17 | 59.88109 | -1.29900 | 29 ft | 1 kts | 226° |